createdAt,value
2023-03-02T00:00:13.435Z,0.00
2023-03-02T00:01:13.414Z,0.00
2023-03-02T00:02:13.431Z,0.00
2023-03-02T00:03:13.399Z,0.00
2023-03-02T00:04:13.383Z,0.00
2023-03-02T00:05:13.373Z,0.00
2023-03-02T00:06:13.375Z,0.00
2023-03-02T00:07:13.355Z,0.00
2023-03-02T00:08:13.361Z,0.00
2023-03-02T00:09:13.326Z,0.00
2023-03-02T00:10:13.320Z,0.00
2023-03-02T00:11:13.337Z,0.00
2023-03-02T00:12:13.299Z,0.00
2023-03-02T00:13:13.287Z,0.00
2023-03-02T00:14:13.282Z,0.00
2023-03-02T00:15:13.265Z,0.00
2023-03-02T00:16:13.302Z,0.00
2023-03-02T00:17:13.256Z,0.00
2023-03-02T00:18:13.243Z,0.00
2023-03-02T00:19:13.227Z,0.00
2023-03-02T00:20:13.222Z,0.00
2023-03-02T00:21:13.227Z,0.00
2023-03-02T00:22:13.209Z,0.00
2023-03-02T00:23:13.204Z,0.00
2023-03-02T00:24:13.168Z,0.00
2023-03-02T00:25:13.182Z,0.00
2023-03-02T00:26:13.156Z,0.00
2023-03-02T00:27:13.144Z,0.00
2023-03-02T00:28:13.152Z,0.00
2023-03-02T00:29:13.165Z,0.00
2023-03-02T00:30:13.261Z,0.00
2023-03-02T00:31:13.141Z,0.00
2023-03-02T00:32:13.120Z,0.00
2023-03-02T00:33:13.082Z,0.00
2023-03-02T00:34:13.087Z,0.00
2023-03-02T00:35:13.059Z,0.00
2023-03-02T00:36:13.044Z,0.00
2023-03-02T00:37:13.046Z,0.00
2023-03-02T00:38:13.026Z,0.00
2023-03-02T00:39:13.008Z,0.00
2023-03-02T00:40:13.006Z,0.00
2023-03-02T00:41:12.986Z,0.00
2023-03-02T00:42:12.977Z,0.00
2023-03-02T00:43:12.965Z,0.00
2023-03-02T00:44:12.975Z,0.00
2023-03-02T00:45:12.979Z,0.00
2023-03-02T00:46:12.985Z,0.00
2023-03-02T00:47:12.925Z,0.00
2023-03-02T00:48:12.980Z,0.00
2023-03-02T00:49:12.897Z,0.00
2023-03-02T00:50:12.933Z,0.00
2023-03-02T00:51:12.887Z,0.00
2023-03-02T00:52:12.899Z,0.00
2023-03-02T00:53:12.856Z,0.00
2023-03-02T00:54:12.882Z,0.00
2023-03-02T00:55:12.859Z,0.00
2023-03-02T00:56:12.851Z,0.00
2023-03-02T00:57:12.845Z,0.00
2023-03-02T00:58:12.805Z,0.00
2023-03-02T00:59:12.804Z,0.00
2023-03-02T01:00:12.786Z,0.00
2023-03-02T01:01:12.794Z,0.00
2023-03-02T01:02:12.853Z,0.00
2023-03-02T01:03:12.791Z,0.00
2023-03-02T01:04:12.751Z,0.00
2023-03-02T01:05:12.756Z,0.00
2023-03-02T01:06:12.737Z,0.00
2023-03-02T01:07:12.728Z,0.00
2023-03-02T01:08:12.713Z,0.00
2023-03-02T01:09:12.785Z,0.00
2023-03-02T01:10:12.769Z,0.00
2023-03-02T01:11:12.711Z,0.00
2023-03-02T01:12:12.723Z,0.00
2023-03-02T01:13:12.652Z,0.00
2023-03-02T01:14:12.681Z,0.00
2023-03-02T01:15:12.637Z,0.00
2023-03-02T01:16:12.760Z,0.00
2023-03-02T01:17:12.624Z,0.00
2023-03-02T01:18:13.166Z,0.00
2023-03-02T01:19:12.617Z,0.00
2023-03-02T01:20:12.645Z,0.00
2023-03-02T01:21:12.580Z,0.00
2023-03-02T01:22:12.587Z,0.00
2023-03-02T01:23:12.563Z,0.00
2023-03-02T01:24:12.557Z,0.00
2023-03-02T01:25:12.546Z,0.00
2023-03-02T01:26:12.531Z,0.00
2023-03-02T01:27:12.514Z,0.00
2023-03-02T01:28:12.508Z,0.00
2023-03-02T01:29:12.513Z,0.00
2023-03-02T01:30:12.489Z,0.00
2023-03-02T01:31:12.514Z,0.00
2023-03-02T01:32:12.481Z,0.00
2023-03-02T01:33:12.465Z,0.00
2023-03-02T01:34:12.458Z,0.00
2023-03-02T01:35:12.449Z,0.00
2023-03-02T01:36:12.426Z,0.00
2023-03-02T01:37:12.417Z,0.00
2023-03-02T01:38:12.417Z,0.00
2023-03-02T01:39:12.390Z,0.00
2023-03-02T01:40:12.387Z,0.00
2023-03-02T01:41:12.386Z,0.00
2023-03-02T01:42:12.376Z,0.00
2023-03-02T01:43:12.366Z,0.00
2023-03-02T01:44:12.337Z,0.00
2023-03-02T01:45:12.327Z,0.00
2023-03-02T01:46:12.394Z,0.00
2023-03-02T01:47:12.340Z,0.00
2023-03-02T01:48:12.320Z,0.00
2023-03-02T01:49:12.321Z,0.00
2023-03-02T01:50:12.281Z,0.00
2023-03-02T01:51:12.256Z,0.00
2023-03-02T01:52:12.270Z,0.00
2023-03-02T01:53:12.243Z,0.00
2023-03-02T01:54:12.250Z,0.00
2023-03-02T01:55:12.239Z,0.00
2023-03-02T01:56:12.216Z,0.00
2023-03-02T01:57:12.208Z,0.00
2023-03-02T01:58:12.195Z,0.00
2023-03-02T01:59:12.200Z,0.00
2023-03-02T02:00:12.178Z,0.00
2023-03-02T02:01:12.216Z,0.00
2023-03-02T02:02:12.158Z,0.00
2023-03-02T02:03:12.148Z,0.00
2023-03-02T02:04:12.201Z,0.00
2023-03-02T02:05:12.140Z,0.00
2023-03-02T02:06:12.127Z,0.00
2023-03-02T02:07:12.108Z,0.00
2023-03-02T02:08:12.101Z,0.00
2023-03-02T02:09:12.090Z,0.00
2023-03-02T02:10:12.078Z,0.00
2023-03-02T02:11:12.068Z,0.00
2023-03-02T02:12:12.050Z,0.00
2023-03-02T02:13:12.055Z,0.00
2023-03-02T02:14:12.066Z,0.00
2023-03-02T02:15:12.040Z,0.00
2023-03-02T02:16:12.053Z,0.00
2023-03-02T02:17:11.999Z,0.00
2023-03-02T02:18:11.989Z,0.00
2023-03-02T02:19:11.978Z,0.00
2023-03-02T02:20:11.985Z,0.00
2023-03-02T02:21:12.001Z,0.00
2023-03-02T02:22:11.965Z,0.00
2023-03-02T02:23:11.940Z,0.00
2023-03-02T02:24:11.935Z,0.00
2023-03-02T02:25:11.919Z,0.00
2023-03-02T02:26:11.918Z,0.00
2023-03-02T02:27:11.890Z,0.00
2023-03-02T02:28:11.887Z,0.00
2023-03-02T02:29:11.890Z,0.00
2023-03-02T02:30:11.861Z,0.00
2023-03-02T02:31:11.861Z,0.00
2023-03-02T02:32:11.987Z,0.00
2023-03-02T02:33:11.838Z,0.00
2023-03-02T02:34:11.836Z,0.00
2023-03-02T02:35:11.840Z,0.00
2023-03-02T02:36:11.799Z,0.00
2023-03-02T02:37:11.797Z,0.00
2023-03-02T02:38:11.802Z,0.00
2023-03-02T02:39:11.779Z,0.00
2023-03-02T02:40:11.780Z,0.00
2023-03-02T02:41:11.767Z,0.00
2023-03-02T02:42:11.749Z,0.00
2023-03-02T02:43:11.733Z,0.00
2023-03-02T02:44:11.719Z,0.00
2023-03-02T02:45:11.717Z,0.00
2023-03-02T02:46:11.832Z,0.00
2023-03-02T02:47:11.699Z,0.00
2023-03-02T02:48:11.684Z,0.00
2023-03-02T02:49:11.669Z,0.00
2023-03-02T02:50:11.679Z,0.00
2023-03-02T02:51:11.648Z,0.00
2023-03-02T02:52:11.629Z,0.00
2023-03-02T02:53:11.640Z,0.00
2023-03-02T02:54:11.610Z,0.00
2023-03-02T02:55:11.609Z,0.00
2023-03-02T02:56:11.589Z,0.00
2023-03-02T02:57:11.589Z,0.00
2023-03-02T02:58:11.588Z,0.00
2023-03-02T02:59:11.573Z,0.00
2023-03-02T03:00:11.554Z,0.00
2023-03-02T03:01:11.578Z,0.00
2023-03-02T03:02:11.551Z,0.00
2023-03-02T03:03:11.539Z,0.00
2023-03-02T03:04:11.590Z,0.00
2023-03-02T03:05:11.501Z,0.00
2023-03-02T03:06:11.501Z,0.00
2023-03-02T03:07:11.499Z,0.00
2023-03-02T03:08:11.472Z,0.00
2023-03-02T03:09:11.486Z,0.00
2023-03-02T03:10:11.460Z,0.00
2023-03-02T03:11:11.442Z,0.00
2023-03-02T03:12:11.429Z,0.00
2023-03-02T03:13:11.444Z,0.00
2023-03-02T03:14:11.410Z,0.00
2023-03-02T03:15:11.430Z,0.00
2023-03-02T03:16:11.400Z,0.00
2023-03-02T03:17:11.444Z,0.00
2023-03-02T03:18:11.379Z,0.00
2023-03-02T03:19:11.359Z,0.00
2023-03-02T03:20:11.349Z,0.00
2023-03-02T03:21:11.341Z,0.00
2023-03-02T03:22:11.387Z,0.00
2023-03-02T03:23:11.337Z,0.00
2023-03-02T03:24:11.323Z,0.00
2023-03-02T03:25:11.305Z,0.00
2023-03-02T03:26:11.287Z,0.00
2023-03-02T03:27:11.274Z,0.00
2023-03-02T03:28:11.262Z,0.00
2023-03-02T03:29:11.266Z,0.00
2023-03-02T03:30:11.226Z,0.00
2023-03-02T03:31:11.325Z,0.00
2023-03-02T03:32:11.265Z,0.00
2023-03-02T03:33:11.204Z,0.00
2023-03-02T03:34:11.185Z,0.00
2023-03-02T03:35:11.183Z,0.00
2023-03-02T03:36:11.177Z,0.00
2023-03-02T03:37:11.178Z,0.00
2023-03-02T03:38:11.173Z,0.00
2023-03-02T03:39:11.148Z,0.00
2023-03-02T03:40:11.152Z,0.00
2023-03-02T03:41:11.151Z,0.00
2023-03-02T03:42:11.134Z,0.00
2023-03-02T03:43:11.123Z,0.00
2023-03-02T03:44:11.094Z,0.00
2023-03-02T03:45:11.098Z,0.00
2023-03-02T03:46:11.118Z,0.00
2023-03-02T03:47:11.066Z,0.00
2023-03-02T03:48:11.047Z,0.00
2023-03-02T03:49:11.054Z,0.00
2023-03-02T03:50:11.083Z,0.00
2023-03-02T03:51:11.039Z,0.00
2023-03-02T03:52:11.002Z,0.00
2023-03-02T03:53:11.012Z,0.00
2023-03-02T03:54:10.982Z,0.00
2023-03-02T03:55:10.986Z,0.00
2023-03-02T03:56:10.980Z,0.00
2023-03-02T03:57:10.970Z,0.00
2023-03-02T03:58:11.002Z,0.00
2023-03-02T03:59:10.951Z,0.00
2023-03-02T04:00:10.955Z,0.00
2023-03-02T04:01:10.978Z,0.00
2023-03-02T04:02:10.931Z,0.00
2023-03-02T04:03:10.921Z,0.00
2023-03-02T04:04:10.896Z,0.00
2023-03-02T04:05:10.896Z,0.00
2023-03-02T04:06:10.853Z,0.00
2023-03-02T04:07:10.857Z,0.00
2023-03-02T04:08:10.880Z,0.00
2023-03-02T04:09:10.842Z,0.00
2023-03-02T04:10:10.826Z,0.00
2023-03-02T04:11:10.801Z,0.00
2023-03-02T04:12:10.794Z,0.00
2023-03-02T04:13:10.788Z,0.00
2023-03-02T04:14:10.801Z,0.00
2023-03-02T04:15:10.761Z,0.00
2023-03-02T04:16:10.792Z,0.00
2023-03-02T04:17:10.754Z,0.00
2023-03-02T04:18:10.738Z,0.00
2023-03-02T04:19:10.758Z,0.00
2023-03-02T04:20:10.739Z,0.00
2023-03-02T04:21:10.723Z,0.00
2023-03-02T04:22:10.703Z,0.00
2023-03-02T04:23:10.682Z,0.00
2023-03-02T04:24:10.684Z,0.00
2023-03-02T04:25:10.681Z,0.00
2023-03-02T04:26:10.651Z,0.00
2023-03-02T04:27:10.633Z,0.00
2023-03-02T04:28:10.643Z,0.00
2023-03-02T04:29:10.634Z,0.00
2023-03-02T04:30:10.626Z,0.00
2023-03-02T04:31:10.659Z,0.00
2023-03-02T04:32:10.656Z,0.00
2023-03-02T04:33:10.579Z,0.00
2023-03-02T04:34:10.600Z,0.00
2023-03-02T04:35:10.593Z,0.00
2023-03-02T04:36:10.567Z,0.00
2023-03-02T04:37:10.553Z,0.00
2023-03-02T04:38:10.574Z,0.00
2023-03-02T04:39:10.532Z,0.00
2023-03-02T04:40:10.512Z,0.00
2023-03-02T04:41:10.505Z,0.00
2023-03-02T04:42:10.504Z,0.00
2023-03-02T04:43:10.509Z,0.00
2023-03-02T04:44:10.502Z,0.00
2023-03-02T04:45:10.496Z,0.00
2023-03-02T04:46:10.476Z,0.00
2023-03-02T04:47:10.600Z,0.00
2023-03-02T04:48:10.794Z,0.00
2023-03-02T04:49:10.435Z,0.00
2023-03-02T04:50:10.429Z,0.00
2023-03-02T04:51:10.417Z,0.00
2023-03-02T04:52:10.396Z,0.00
2023-03-02T04:53:10.376Z,0.00
2023-03-02T04:54:10.379Z,0.00
2023-03-02T04:55:10.377Z,0.00
2023-03-02T04:56:10.366Z,0.00
2023-03-02T04:57:10.348Z,0.00
2023-03-02T04:58:10.332Z,0.00
2023-03-02T04:59:10.330Z,0.00
2023-03-02T05:00:10.325Z,0.00
2023-03-02T05:01:10.312Z,0.00
2023-03-02T05:02:10.348Z,0.00
2023-03-02T05:03:10.303Z,0.00
2023-03-02T05:04:10.282Z,0.00
2023-03-02T05:05:10.256Z,0.00
2023-03-02T05:06:10.259Z,0.00
2023-03-02T05:07:10.254Z,0.00
2023-03-02T05:08:10.246Z,0.00
2023-03-02T05:09:10.232Z,0.00
2023-03-02T05:10:10.222Z,0.00
2023-03-02T05:11:10.197Z,0.00
2023-03-02T05:12:10.194Z,0.00
2023-03-02T05:13:10.187Z,0.00
2023-03-02T05:14:10.208Z,0.00
2023-03-02T05:15:10.187Z,0.00
2023-03-02T05:16:10.912Z,0.00
2023-03-02T05:17:10.177Z,0.00
2023-03-02T05:18:10.834Z,0.00
2023-03-02T05:19:10.171Z,0.00
2023-03-02T05:20:10.176Z,0.00
2023-03-02T05:21:10.117Z,0.00
2023-03-02T05:22:10.797Z,0.00
2023-03-02T05:23:10.094Z,0.00
2023-03-02T05:24:11.536Z,0.00
2023-03-02T05:25:10.147Z,0.00
2023-03-02T05:26:10.757Z,0.00
2023-03-02T05:27:10.047Z,0.00
2023-03-02T05:28:10.752Z,0.00
2023-03-02T05:29:10.020Z,0.00
2023-03-02T05:30:10.118Z,0.00
2023-03-02T05:31:10.040Z,0.00
2023-03-02T05:32:10.015Z,0.00
2023-03-02T05:33:09.970Z,0.00
2023-03-02T05:34:09.975Z,0.00
2023-03-02T05:35:09.977Z,0.00
2023-03-02T05:36:09.935Z,0.00
2023-03-02T05:37:09.949Z,0.00
2023-03-02T05:38:09.917Z,0.00
2023-03-02T05:39:09.903Z,0.00
2023-03-02T05:40:09.928Z,0.00
2023-03-02T05:41:09.887Z,0.00
2023-03-02T05:42:09.896Z,0.00
2023-03-02T05:43:09.856Z,0.00
2023-03-02T05:44:09.879Z,0.00
2023-03-02T05:45:09.870Z,0.00
2023-03-02T05:46:09.829Z,0.00
2023-03-02T05:47:09.897Z,0.00
2023-03-02T05:48:09.818Z,0.00
2023-03-02T05:49:09.807Z,0.00
2023-03-02T05:50:09.825Z,0.00
2023-03-02T05:51:09.805Z,0.00
2023-03-02T05:52:09.778Z,0.00
2023-03-02T05:53:09.747Z,0.00
2023-03-02T05:54:09.747Z,0.00
2023-03-02T05:55:09.748Z,0.00
2023-03-02T05:56:09.767Z,0.00
2023-03-02T05:57:09.718Z,0.00
2023-03-02T05:58:09.717Z,0.00
2023-03-02T05:59:09.706Z,0.00
2023-03-02T06:00:09.701Z,0.00
2023-03-02T06:01:09.668Z,0.00
2023-03-02T06:02:09.757Z,0.00
2023-03-02T06:03:09.737Z,0.00
2023-03-02T06:04:09.648Z,0.00
2023-03-02T06:05:09.642Z,0.00
2023-03-02T06:06:09.624Z,0.00
2023-03-02T06:07:09.604Z,0.00
2023-03-02T06:08:09.618Z,5.62
2023-03-02T06:09:09.597Z,5.62
2023-03-02T06:10:09.574Z,5.62
2023-03-02T06:11:09.584Z,5.62
2023-03-02T06:12:09.588Z,5.62
2023-03-02T06:13:09.554Z,5.62
2023-03-02T06:14:09.555Z,5.62
2023-03-02T06:15:09.532Z,5.62
2023-03-02T06:16:09.621Z,5.62
2023-03-02T06:17:09.505Z,5.62
2023-03-02T06:18:09.694Z,11.25
2023-03-02T06:19:09.501Z,11.25
2023-03-02T06:20:09.494Z,11.25
2023-03-02T06:21:09.476Z,11.25
2023-03-02T06:22:09.454Z,11.25
2023-03-02T06:23:09.445Z,11.25
2023-03-02T06:24:09.464Z,11.25
2023-03-02T06:25:09.421Z,16.88
2023-03-02T06:26:09.431Z,11.25
2023-03-02T06:27:09.475Z,16.88
2023-03-02T06:28:09.395Z,16.88
2023-03-02T06:29:09.374Z,16.88
2023-03-02T06:30:09.386Z,16.88
2023-03-02T06:31:09.375Z,16.88
2023-03-02T06:32:09.457Z,16.88
2023-03-02T06:33:09.348Z,16.88
2023-03-02T06:34:09.345Z,16.88
2023-03-02T06:35:09.336Z,22.50
2023-03-02T06:36:09.402Z,22.50
2023-03-02T06:37:09.316Z,22.50
2023-03-02T06:38:09.296Z,22.50
2023-03-02T06:39:09.302Z,22.50
2023-03-02T06:40:10.196Z,22.50
2023-03-02T06:41:09.247Z,22.50
2023-03-02T06:42:09.268Z,22.50
2023-03-02T06:43:09.254Z,22.50
2023-03-02T06:44:09.237Z,22.50
2023-03-02T06:45:09.232Z,22.50
2023-03-02T06:46:09.261Z,22.50
2023-03-02T06:47:09.214Z,22.50
2023-03-02T06:48:09.198Z,22.50
2023-03-02T06:49:09.206Z,22.50
2023-03-02T06:50:09.167Z,22.50
2023-03-02T06:51:09.148Z,22.50
2023-03-02T06:52:09.147Z,22.50
2023-03-02T06:53:09.137Z,28.12
2023-03-02T06:54:09.159Z,28.12
2023-03-02T06:55:09.116Z,28.12
2023-03-02T06:56:09.097Z,28.12
2023-03-02T06:57:09.102Z,28.12
2023-03-02T06:58:09.116Z,28.12
2023-03-02T06:59:09.068Z,28.12
2023-03-02T07:00:09.075Z,28.12
2023-03-02T07:01:09.111Z,33.75
2023-03-02T07:02:09.047Z,33.75
2023-03-02T07:03:09.040Z,33.75
2023-03-02T07:04:09.029Z,33.75
2023-03-02T07:05:09.017Z,39.38
2023-03-02T07:06:09.037Z,39.38
2023-03-02T07:07:08.979Z,39.38
2023-03-02T07:08:08.985Z,39.38
2023-03-02T07:09:08.975Z,45.00
2023-03-02T07:10:08.958Z,45.00
2023-03-02T07:11:08.954Z,45.00
2023-03-02T07:12:08.953Z,45.00
2023-03-02T07:13:09.435Z,45.00
2023-03-02T07:14:08.915Z,45.00
2023-03-02T07:15:08.904Z,45.00
2023-03-02T07:16:08.904Z,45.00
2023-03-02T07:17:08.970Z,45.00
2023-03-02T07:18:08.918Z,45.00
2023-03-02T07:19:08.854Z,45.00
2023-03-02T07:20:08.870Z,50.62
2023-03-02T07:21:08.834Z,50.62
2023-03-02T07:22:08.835Z,50.62
2023-03-02T07:23:08.825Z,50.62
2023-03-02T07:24:08.830Z,50.62
2023-03-02T07:25:08.813Z,50.62
2023-03-02T07:26:08.910Z,56.25
2023-03-02T07:27:08.784Z,50.62
2023-03-02T07:28:08.784Z,56.25
2023-03-02T07:29:08.754Z,61.88
2023-03-02T07:30:08.762Z,56.25
2023-03-02T07:31:08.954Z,61.88
2023-03-02T07:32:10.815Z,61.88
2023-03-02T07:33:08.734Z,61.88
2023-03-02T07:34:08.700Z,61.88
2023-03-02T07:35:08.684Z,61.88
2023-03-02T07:36:08.693Z,56.25
2023-03-02T07:37:08.666Z,61.88
2023-03-02T07:38:08.675Z,61.88
2023-03-02T07:39:08.663Z,67.50
2023-03-02T07:40:08.658Z,73.12
2023-03-02T07:41:08.625Z,67.50
2023-03-02T07:42:08.638Z,73.12
2023-03-02T07:43:08.630Z,73.12
2023-03-02T07:44:08.617Z,78.75
2023-03-02T07:45:08.645Z,84.38
2023-03-02T07:46:08.656Z,84.38
2023-03-02T07:47:08.575Z,84.38
2023-03-02T07:48:08.581Z,84.38
2023-03-02T07:49:08.560Z,90.00
2023-03-02T07:50:08.537Z,95.62
2023-03-02T07:51:08.522Z,90.00
2023-03-02T07:52:08.530Z,101.25
2023-03-02T07:53:08.519Z,101.25
2023-03-02T07:54:08.519Z,101.25
2023-03-02T07:55:08.501Z,101.25
2023-03-02T07:56:08.476Z,101.25
2023-03-02T07:57:08.483Z,101.25
2023-03-02T07:58:08.479Z,106.88
2023-03-02T07:59:08.439Z,106.88
2023-03-02T08:00:08.437Z,106.88
2023-03-02T08:01:08.438Z,112.50
2023-03-02T08:02:08.486Z,112.50
2023-03-02T08:03:08.489Z,118.12
2023-03-02T08:04:08.400Z,118.12
2023-03-02T08:05:08.436Z,118.12
2023-03-02T08:06:08.422Z,118.12
2023-03-02T08:07:08.373Z,118.12
2023-03-02T08:08:08.389Z,123.75
2023-03-02T08:09:08.358Z,123.75
2023-03-02T08:10:08.349Z,118.12
2023-03-02T08:11:08.328Z,123.75
2023-03-02T08:12:08.332Z,123.75
2023-03-02T08:13:08.309Z,123.75
2023-03-02T08:14:08.334Z,123.75
2023-03-02T08:15:08.289Z,123.75
2023-03-02T08:16:08.386Z,129.38
2023-03-02T08:17:08.256Z,135.00
2023-03-02T08:18:08.264Z,140.62
2023-03-02T08:19:08.252Z,123.75
2023-03-02T08:20:08.262Z,135.00
2023-03-02T08:21:08.219Z,135.00
2023-03-02T08:22:08.203Z,140.62
2023-03-02T08:23:08.212Z,140.62
2023-03-02T08:24:08.210Z,146.25
2023-03-02T08:25:08.199Z,151.88
2023-03-02T08:26:08.170Z,151.88
2023-03-02T08:27:08.151Z,151.88
2023-03-02T08:28:08.233Z,140.62
2023-03-02T08:29:08.150Z,146.25
2023-03-02T08:30:08.135Z,140.62
2023-03-02T08:31:08.139Z,129.38
2023-03-02T08:32:08.178Z,129.38
2023-03-02T08:33:08.103Z,123.75
2023-03-02T08:34:08.099Z,118.12
2023-03-02T08:35:08.084Z,112.50
2023-03-02T08:36:08.259Z,118.12
2023-03-02T08:37:08.044Z,129.38
2023-03-02T08:38:08.068Z,129.38
2023-03-02T08:39:08.059Z,123.75
2023-03-02T08:40:08.023Z,123.75
2023-03-02T08:41:08.038Z,112.50
2023-03-02T08:42:07.998Z,112.50
2023-03-02T08:43:08.236Z,112.50
2023-03-02T08:44:07.980Z,112.50
2023-03-02T08:45:07.964Z,112.50
2023-03-02T08:46:08.057Z,112.50
2023-03-02T08:47:07.981Z,112.50
2023-03-02T08:48:07.933Z,112.50
2023-03-02T08:49:07.973Z,112.50
2023-03-02T08:50:07.914Z,112.50
2023-03-02T08:51:07.910Z,112.50
2023-03-02T08:52:07.902Z,112.50
2023-03-02T08:53:07.879Z,112.50
2023-03-02T08:54:07.861Z,112.50
2023-03-02T08:55:07.919Z,112.50
2023-03-02T08:56:07.850Z,112.50
2023-03-02T08:57:07.870Z,112.50
2023-03-02T08:58:07.835Z,112.50
2023-03-02T08:59:07.824Z,112.50
2023-03-02T09:00:07.803Z,112.50
2023-03-02T09:01:07.839Z,112.50
2023-03-02T09:02:07.813Z,112.50
2023-03-02T09:03:07.770Z,112.50
2023-03-02T09:04:07.813Z,112.50
2023-03-02T09:05:07.761Z,112.50
2023-03-02T09:06:07.730Z,112.50
2023-03-02T09:07:07.727Z,112.50
2023-03-02T09:08:07.720Z,112.50
2023-03-02T09:09:07.729Z,118.12
2023-03-02T09:10:07.700Z,118.12
2023-03-02T09:11:07.689Z,118.12
2023-03-02T09:12:07.695Z,118.12
2023-03-02T09:13:08.613Z,118.12
2023-03-02T09:14:07.673Z,118.12
2023-03-02T09:15:07.662Z,118.12
2023-03-02T09:16:07.684Z,118.12
2023-03-02T09:17:07.649Z,118.12
2023-03-02T09:18:07.605Z,118.12
2023-03-02T09:19:07.604Z,118.12
2023-03-02T09:20:07.623Z,118.12
2023-03-02T09:21:07.589Z,118.12
2023-03-02T09:22:07.593Z,118.12
2023-03-02T09:23:07.571Z,118.12
2023-03-02T09:24:07.552Z,118.12
2023-03-02T09:25:07.532Z,123.75
2023-03-02T09:26:07.534Z,123.75
2023-03-02T09:27:07.525Z,123.75
2023-03-02T09:28:07.521Z,123.75
2023-03-02T09:29:07.560Z,123.75
2023-03-02T09:30:07.487Z,129.38
2023-03-02T09:31:07.502Z,129.38
2023-03-02T09:32:07.528Z,129.38
2023-03-02T09:33:07.493Z,129.38
2023-03-02T09:34:07.446Z,129.38
2023-03-02T09:35:07.449Z,129.38
2023-03-02T09:36:07.448Z,129.38
2023-03-02T09:37:07.406Z,123.75
2023-03-02T09:38:07.464Z,129.38
2023-03-02T09:39:07.416Z,129.38
2023-03-02T09:40:07.372Z,129.38
2023-03-02T09:41:07.377Z,135.00
2023-03-02T09:42:07.357Z,135.00
2023-03-02T09:43:07.345Z,140.62
2023-03-02T09:44:07.346Z,146.25
2023-03-02T09:45:07.329Z,146.25
2023-03-02T09:46:07.320Z,151.88
2023-03-02T09:47:07.317Z,151.88
2023-03-02T09:48:07.294Z,157.50
2023-03-02T09:49:07.290Z,157.50
2023-03-02T09:50:07.272Z,163.12
2023-03-02T09:51:07.278Z,163.12
2023-03-02T09:52:07.270Z,163.12
2023-03-02T09:53:07.247Z,163.12
2023-03-02T09:54:07.325Z,163.12
2023-03-02T09:55:07.218Z,163.12
2023-03-02T09:56:07.226Z,151.88
2023-03-02T09:57:07.207Z,151.88
2023-03-02T09:58:07.186Z,163.12
2023-03-02T09:59:07.187Z,163.12
2023-03-02T10:00:18.628Z,157.50
2023-03-02T10:01:08.180Z,157.50
2023-03-02T10:02:07.186Z,157.50
2023-03-02T10:03:16.706Z,157.50
2023-03-02T10:04:08.253Z,157.50
2023-03-02T10:05:07.140Z,157.50
2023-03-02T10:06:07.097Z,157.50
2023-03-02T10:07:07.116Z,157.50
2023-03-02T10:08:07.080Z,157.50
2023-03-02T10:09:07.088Z,157.50
2023-03-02T10:10:07.066Z,163.12
2023-03-02T10:11:07.068Z,163.12
2023-03-02T10:12:07.036Z,168.75
2023-03-02T10:13:07.029Z,174.38
2023-03-02T10:14:07.045Z,185.62
2023-03-02T10:15:07.027Z,185.62
2023-03-02T10:16:07.011Z,185.62
2023-03-02T10:17:06.987Z,196.88
2023-03-02T10:18:07.009Z,202.50
2023-03-02T10:19:06.999Z,225.00
2023-03-02T10:20:06.967Z,225.00
2023-03-02T10:21:06.949Z,213.75
2023-03-02T10:22:06.953Z,208.12
2023-03-02T10:23:06.927Z,230.62
2023-03-02T10:24:06.916Z,230.62
2023-03-02T10:25:06.912Z,213.75
2023-03-02T10:26:06.879Z,213.75
2023-03-02T10:27:06.882Z,213.75
2023-03-02T10:28:06.878Z,208.12
2023-03-02T10:29:06.892Z,208.12
2023-03-02T10:30:06.847Z,202.50
2023-03-02T10:31:06.900Z,196.88
2023-03-02T10:32:06.833Z,191.25
2023-03-02T10:33:06.822Z,196.88
2023-03-02T10:34:06.821Z,202.50
2023-03-02T10:35:06.793Z,208.12
2023-03-02T10:36:06.812Z,213.75
2023-03-02T10:37:06.780Z,208.12
2023-03-02T10:38:06.769Z,196.88
2023-03-02T10:39:06.771Z,191.25
2023-03-02T10:40:06.737Z,196.88
2023-03-02T10:41:06.817Z,196.88
2023-03-02T10:42:06.812Z,196.88
2023-03-02T10:43:06.712Z,202.50
2023-03-02T10:44:06.692Z,213.75
2023-03-02T10:45:06.679Z,213.75
2023-03-02T10:46:06.738Z,213.75
2023-03-02T10:47:06.667Z,213.75
2023-03-02T10:48:06.658Z,213.75
2023-03-02T10:49:06.674Z,213.75
2023-03-02T10:50:06.644Z,208.12
2023-03-02T10:51:06.651Z,208.12
2023-03-02T10:52:06.621Z,208.12
2023-03-02T10:53:06.611Z,208.12
2023-03-02T10:54:06.608Z,208.12
2023-03-02T10:55:06.609Z,213.75
2023-03-02T10:56:06.579Z,219.38
2023-03-02T10:57:06.566Z,225.00
2023-03-02T10:58:06.561Z,225.00
2023-03-02T10:59:06.556Z,225.00
2023-03-02T11:00:06.550Z,225.00
2023-03-02T11:01:06.550Z,219.38
2023-03-02T11:02:06.501Z,225.00
2023-03-02T11:03:06.499Z,225.00
2023-03-02T11:04:06.508Z,225.00
2023-03-02T11:05:06.471Z,225.00
2023-03-02T11:06:06.479Z,225.00
2023-03-02T11:07:06.482Z,225.00
2023-03-02T11:08:06.457Z,225.00
2023-03-02T11:09:06.450Z,230.62
2023-03-02T11:10:06.411Z,230.62
2023-03-02T11:11:06.413Z,230.62
2023-03-02T11:12:06.455Z,230.62
2023-03-02T11:13:06.413Z,230.62
2023-03-02T11:14:06.374Z,236.25
2023-03-02T11:15:06.389Z,236.25
2023-03-02T11:16:06.431Z,236.25
2023-03-02T11:17:06.354Z,236.25
2023-03-02T11:18:06.362Z,241.88
2023-03-02T11:19:06.342Z,241.88
2023-03-02T11:20:06.328Z,247.50
2023-03-02T11:21:06.316Z,247.50
2023-03-02T11:22:06.323Z,253.12
2023-03-02T11:23:06.286Z,264.38
2023-03-02T11:24:06.615Z,264.38
2023-03-02T11:25:06.276Z,264.38
2023-03-02T11:26:06.260Z,264.38
2023-03-02T11:27:06.252Z,264.38
2023-03-02T11:28:06.233Z,275.62
2023-03-02T11:29:06.239Z,292.50
2023-03-02T11:30:06.224Z,292.50
2023-03-02T11:31:06.274Z,320.62
2023-03-02T11:32:06.292Z,286.88
2023-03-02T11:33:06.208Z,281.25
2023-03-02T11:34:15.615Z,281.25
2023-03-02T11:35:07.171Z,286.88
2023-03-02T11:36:06.163Z,281.25
2023-03-02T11:37:06.137Z,281.25
2023-03-02T11:38:06.116Z,286.88
2023-03-02T11:39:06.124Z,292.50
2023-03-02T11:40:06.129Z,298.12
2023-03-02T11:41:06.106Z,303.75
2023-03-02T11:42:06.082Z,309.38
2023-03-02T11:43:06.081Z,309.38
2023-03-02T11:44:06.058Z,309.38
2023-03-02T11:45:06.059Z,315.00
2023-03-02T11:46:13.941Z,320.62
2023-03-02T11:47:07.074Z,315.00
2023-03-02T11:48:06.035Z,315.00
2023-03-02T11:49:06.017Z,315.00
2023-03-02T11:50:06.010Z,315.00
2023-03-02T11:51:06.010Z,315.00
2023-03-02T11:52:05.986Z,315.00
2023-03-02T11:53:05.972Z,320.62
2023-03-02T11:54:06.001Z,326.25
2023-03-02T11:55:05.953Z,331.88
2023-03-02T11:56:05.950Z,343.12
2023-03-02T11:57:05.966Z,354.38
2023-03-02T11:58:05.924Z,371.25
2023-03-02T11:59:05.904Z,376.88
2023-03-02T12:00:05.887Z,388.12
2023-03-02T12:01:05.889Z,399.38
2023-03-02T12:02:05.960Z,410.62
2023-03-02T12:03:05.863Z,427.50
2023-03-02T12:05:05.885Z,433.12
2023-03-02T12:06:07.143Z,472.50
2023-03-02T12:07:05.830Z,495.00
2023-03-02T12:08:05.802Z,500.62
2023-03-02T12:09:05.862Z,506.25
2023-03-02T12:10:05.794Z,523.12
2023-03-02T12:11:05.792Z,540.00
2023-03-02T12:12:06.253Z,489.38
2023-03-02T12:13:05.764Z,573.75
2023-03-02T12:14:05.738Z,590.62
2023-03-02T12:15:05.744Z,601.88
2023-03-02T12:16:05.736Z,613.12
2023-03-02T12:17:05.748Z,635.62
2023-03-02T12:18:05.767Z,652.50
2023-03-02T12:19:05.699Z,675.00
2023-03-02T12:20:05.698Z,686.25
2023-03-02T12:21:05.667Z,714.38
2023-03-02T12:22:05.718Z,731.25
2023-03-02T12:23:05.667Z,753.75
2023-03-02T12:24:05.639Z,770.62
2023-03-02T12:25:05.627Z,781.88
2023-03-02T12:26:05.671Z,793.12
2023-03-02T12:27:05.618Z,810.00
2023-03-02T12:28:05.589Z,967.50
2023-03-02T12:29:05.616Z,1316.25
2023-03-02T12:30:05.604Z,1468.12
2023-03-02T12:31:05.570Z,1445.62
2023-03-02T12:32:05.678Z,1552.50
2023-03-02T12:33:05.575Z,1558.12
2023-03-02T12:34:05.594Z,1597.50
2023-03-02T12:35:05.539Z,1642.50
2023-03-02T12:36:05.520Z,1648.12
2023-03-02T12:37:05.511Z,1681.88
2023-03-02T12:38:05.583Z,1726.88
2023-03-02T12:39:05.482Z,1766.25
2023-03-02T12:40:05.474Z,1856.25
2023-03-02T12:41:05.470Z,1929.38
2023-03-02T12:42:05.455Z,1918.12
2023-03-02T12:43:05.487Z,1895.62
2023-03-02T12:44:05.496Z,1918.12
2023-03-02T12:45:05.456Z,1957.50
2023-03-02T12:46:05.452Z,1946.25
2023-03-02T12:47:05.422Z,1957.50
2023-03-02T12:48:05.736Z,1890.00
2023-03-02T12:49:06.250Z,1833.75
2023-03-02T12:50:05.375Z,1788.75
2023-03-02T12:51:05.405Z,1861.88
2023-03-02T12:52:05.475Z,1963.12
2023-03-02T12:53:05.349Z,2019.38
2023-03-02T12:54:05.315Z,2047.50
2023-03-02T12:55:05.339Z,1985.62